sensor_id;sensor_type;location;lat;lon;timestamp;P1;durP1;ratioP1;P2;durP2;ratioP2
13425;SDS011;6785;57.918;12.530;2022-11-15T00:00:31;11.20;;;5.30;;
13425;SDS011;6785;57.918;12.530;2022-11-15T00:03:00;7.57;;;5.30;;
13425;SDS011;6785;57.918;12.530;2022-11-15T00:05:27;7.77;;;5.63;;
13425;SDS011;6785;57.918;12.530;2022-11-15T00:07:54;10.43;;;6.07;;
13425;SDS011;6785;57.918;12.530;2022-11-15T00:10:22;8.47;;;5.17;;
13425;SDS011;6785;57.918;12.530;2022-11-15T00:12:49;6.43;;;5.43;;
13425;SDS011;6785;57.918;12.530;2022-11-15T00:15:16;6.17;;;5.00;;
13425;SDS011;6785;57.918;12.530;2022-11-15T00:17:43;7.13;;;5.17;;
13425;SDS011;6785;57.918;12.530;2022-11-15T00:20:15;10.60;;;5.20;;
13425;SDS011;6785;57.918;12.530;2022-11-15T00:22:43;6.97;;;5.33;;
13425;SDS011;6785;57.918;12.530;2022-11-15T00:25:10;9.70;;;5.50;;
13425;SDS011;6785;57.918;12.530;2022-11-15T00:27:37;6.47;;;5.00;;
13425;SDS011;6785;57.918;12.530;2022-11-15T00:30:04;7.30;;;5.00;;
13425;SDS011;6785;57.918;12.530;2022-11-15T00:32:32;6.67;;;5.30;;
13425;SDS011;6785;57.918;12.530;2022-11-15T00:34:59;7.27;;;5.23;;
13425;SDS011;6785;57.918;12.530;2022-11-15T00:37:28;10.13;;;5.10;;
13425;SDS011;6785;57.918;12.530;2022-11-15T00:39:55;10.33;;;5.97;;
13425;SDS011;6785;57.918;12.530;2022-11-15T00:42:22;9.93;;;5.80;;
13425;SDS011;6785;57.918;12.530;2022-11-15T00:44:49;7.77;;;5.57;;
13425;SDS011;6785;57.918;12.530;2022-11-15T00:47:16;6.80;;;5.53;;
13425;SDS011;6785;57.918;12.530;2022-11-15T00:49:43;7.47;;;5.10;;
13425;SDS011;6785;57.918;12.530;2022-11-15T00:52:10;9.43;;;5.90;;
13425;SDS011;6785;57.918;12.530;2022-11-15T00:54:38;7.67;;;5.33;;
13425;SDS011;6785;57.918;12.530;2022-11-15T00:57:05;6.57;;;5.27;;
13425;SDS011;6785;57.918;12.530;2022-11-15T00:59:32;8.27;;;4.70;;
13425;SDS011;6785;57.918;12.530;2022-11-15T01:01:59;7.83;;;4.80;;
13425;SDS011;6785;57.918;12.530;2022-11-15T01:04:26;6.50;;;4.80;;
13425;SDS011;6785;57.918;12.530;2022-11-15T01:06:53;7.57;;;4.77;;
13425;SDS011;6785;57.918;12.530;2022-11-15T01:09:20;7.90;;;5.00;;
13425;SDS011;6785;57.918;12.530;2022-11-15T01:11:49;7.43;;;4.80;;
13425;SDS011;6785;57.918;12.530;2022-11-15T01:14:16;6.80;;;5.60;;
13425;SDS011;6785;57.918;12.530;2022-11-15T01:16:43;8.30;;;5.47;;
13425;SDS011;6785;57.918;12.530;2022-11-15T01:19:10;6.83;;;5.43;;
13425;SDS011;6785;57.918;12.530;2022-11-15T01:21:37;7.30;;;4.90;;
13425;SDS011;6785;57.918;12.530;2022-11-15T01:24:05;8.03;;;5.27;;
13425;SDS011;6785;57.918;12.530;2022-11-15T01:26:33;9.37;;;4.93;;
13425;SDS011;6785;57.918;12.530;2022-11-15T01:29:02;8.33;;;5.30;;
13425;SDS011;6785;57.918;12.530;2022-11-15T01:31:29;11.03;;;5.53;;
13425;SDS011;6785;57.918;12.530;2022-11-15T01:33:57;7.23;;;5.43;;
13425;SDS011;6785;57.918;12.530;2022-11-15T01:36:24;7.33;;;4.97;;
13425;SDS011;6785;57.918;12.530;2022-11-15T01:38:53;7.53;;;4.63;;
13425;SDS011;6785;57.918;12.530;2022-11-15T01:41:21;5.77;;;4.77;;
13425;SDS011;6785;57.918;12.530;2022-11-15T01:43:51;5.90;;;4.73;;
13425;SDS011;6785;57.918;12.530;2022-11-15T01:46:27;8.93;;;5.63;;
13425;SDS011;6785;57.918;12.530;2022-11-15T01:49:00;8.13;;;5.53;;
13425;SDS011;6785;57.918;12.530;2022-11-15T01:51:37;9.37;;;5.17;;
13425;SDS011;6785;57.918;12.530;2022-11-15T01:54:06;6.43;;;5.20;;
13425;SDS011;6785;57.918;12.530;2022-11-15T01:56:40;10.53;;;4.80;;
13425;SDS011;6785;57.918;12.530;2022-11-15T01:59:15;8.07;;;5.00;;
13425;SDS011;6785;57.918;12.530;2022-11-15T02:01:43;9.00;;;5.30;;
13425;SDS011;6785;57.918;12.530;2022-11-15T02:04:12;7.33;;;5.07;;
13425;SDS011;6785;57.918;12.530;2022-11-15T02:06:43;7.20;;;5.07;;
13425;SDS011;6785;57.918;12.530;2022-11-15T02:09:12;8.23;;;4.97;;
13425;SDS011;6785;57.918;12.530;2022-11-15T02:11:40;6.10;;;4.97;;
13425;SDS011;6785;57.918;12.530;2022-11-15T02:14:08;7.80;;;4.70;;
13425;SDS011;6785;57.918;12.530;2022-11-15T02:16:40;6.47;;;5.10;;
13425;SDS011;6785;57.918;12.530;2022-11-15T02:19:21;6.63;;;4.97;;
13425;SDS011;6785;57.918;12.530;2022-11-15T02:22:14;9.90;;;4.73;;
13425;SDS011;6785;57.918;12.530;2022-11-15T02:25:12;8.00;;;5.13;;
13425;SDS011;6785;57.918;12.530;2022-11-15T02:31:17;7.93;;;4.97;;
13425;SDS011;6785;57.918;12.530;2022-11-15T02:33:56;7.90;;;4.87;;
13425;SDS011;6785;57.918;12.530;2022-11-15T02:36:35;10.20;;;5.30;;
13425;SDS011;6785;57.918;12.530;2022-11-15T02:39:10;9.87;;;5.77;;
13425;SDS011;6785;57.918;12.530;2022-11-15T02:41:52;8.53;;;4.53;;
13425;SDS011;6785;57.918;12.530;2022-11-15T02:44:29;6.50;;;5.23;;
13425;SDS011;6785;57.918;12.530;2022-11-15T02:47:02;9.00;;;6.00;;
13425;SDS011;6785;57.918;12.530;2022-11-15T02:49:39;7.87;;;5.50;;
13425;SDS011;6785;57.918;12.530;2022-11-15T02:52:14;7.47;;;5.30;;
13425;SDS011;6785;57.918;12.530;2022-11-15T02:54:43;9.50;;;5.40;;
13425;SDS011;6785;57.918;12.530;2022-11-15T02:57:23;7.67;;;5.10;;
13425;SDS011;6785;57.918;12.530;2022-11-15T03:00:07;9.40;;;5.27;;
13425;SDS011;6785;57.918;12.530;2022-11-15T03:02:44;6.33;;;4.47;;
13425;SDS011;6785;57.918;12.530;2022-11-15T03:05:33;6.10;;;4.83;;
13425;SDS011;6785;57.918;12.530;2022-11-15T03:08:08;8.40;;;5.43;;
13425;SDS011;6785;57.918;12.530;2022-11-15T03:10:46;8.77;;;5.00;;
13425;SDS011;6785;57.918;12.530;2022-11-15T03:13:26;6.80;;;5.20;;
13425;SDS011;6785;57.918;12.530;2022-11-15T03:16:03;6.30;;;4.90;;
13425;SDS011;6785;57.918;12.530;2022-11-15T03:18:37;7.30;;;5.47;;
13425;SDS011;6785;57.918;12.530;2022-11-15T03:21:10;6.80;;;5.23;;
13425;SDS011;6785;57.918;12.530;2022-11-15T03:23:40;7.77;;;5.40;;
13425;SDS011;6785;57.918;12.530;2022-11-15T03:26:11;7.43;;;5.27;;
13425;SDS011;6785;57.918;12.530;2022-11-15T03:28:41;8.20;;;5.67;;
13425;SDS011;6785;57.918;12.530;2022-11-15T03:31:16;7.83;;;5.23;;
13425;SDS011;6785;57.918;12.530;2022-11-15T03:34:07;7.27;;;5.10;;
13425;SDS011;6785;57.918;12.530;2022-11-15T03:36:45;7.13;;;5.00;;
13425;SDS011;6785;57.918;12.530;2022-11-15T03:39:13;11.87;;;5.60;;
13425;SDS011;6785;57.918;12.530;2022-11-15T03:41:42;7.30;;;5.00;;
13425;SDS011;6785;57.918;12.530;2022-11-15T03:44:24;7.87;;;4.97;;
13425;SDS011;6785;57.918;12.530;2022-11-15T03:47:03;7.87;;;4.70;;
13425;SDS011;6785;57.918;12.530;2022-11-15T03:49:40;8.03;;;5.50;;
13425;SDS011;6785;57.918;12.530;2022-11-15T03:52:12;8.90;;;5.13;;
13425;SDS011;6785;57.918;12.530;2022-11-15T03:54:50;8.43;;;5.30;;
13425;SDS011;6785;57.918;12.530;2022-11-15T03:57:20;8.20;;;4.90;;
13425;SDS011;6785;57.918;12.530;2022-11-15T03:59:47;7.73;;;5.17;;
13425;SDS011;6785;57.918;12.530;2022-11-15T04:02:14;9.63;;;5.30;;
13425;SDS011;6785;57.918;12.530;2022-11-15T04:04:44;8.37;;;5.13;;
13425;SDS011;6785;57.918;12.530;2022-11-15T04:07:11;8.60;;;4.97;;
13425;SDS011;6785;57.918;12.530;2022-11-15T04:09:38;9.70;;;5.20;;
13425;SDS011;6785;57.918;12.530;2022-11-15T04:12:19;7.17;;;4.80;;
13425;SDS011;6785;57.918;12.530;2022-11-15T04:14:55;9.70;;;5.30;;
13425;SDS011;6785;57.918;12.530;2022-11-15T04:17:38;9.33;;;5.47;;
13425;SDS011;6785;57.918;12.530;2022-11-15T04:20:10;6.47;;;5.17;;
13425;SDS011;6785;57.918;12.530;2022-11-15T04:22:58;7.50;;;4.97;;
13425;SDS011;6785;57.918;12.530;2022-11-15T04:25:45;5.87;;;4.60;;
13425;SDS011;6785;57.918;12.530;2022-11-15T04:28:16;11.73;;;5.60;;
13425;SDS011;6785;57.918;12.530;2022-11-15T04:30:43;8.27;;;5.03;;
13425;SDS011;6785;57.918;12.530;2022-11-15T04:33:10;8.87;;;5.60;;
13425;SDS011;6785;57.918;12.530;2022-11-15T04:35:39;10.93;;;6.30;;
13425;SDS011;6785;57.918;12.530;2022-11-15T04:38:08;8.50;;;5.83;;
13425;SDS011;6785;57.918;12.530;2022-11-15T04:40:36;8.47;;;5.87;;
13425;SDS011;6785;57.918;12.530;2022-11-15T04:43:03;8.40;;;5.33;;
13425;SDS011;6785;57.918;12.530;2022-11-15T04:45:30;9.83;;;5.33;;
13425;SDS011;6785;57.918;12.530;2022-11-15T04:47:57;8.43;;;5.33;;
13425;SDS011;6785;57.918;12.530;2022-11-15T04:50:24;7.77;;;5.23;;
13425;SDS011;6785;57.918;12.530;2022-11-15T04:52:53;13.10;;;5.23;;
13425;SDS011;6785;57.918;12.530;2022-11-15T04:55:20;7.53;;;5.70;;
13425;SDS011;6785;57.918;12.530;2022-11-15T04:57:48;7.87;;;5.10;;
13425;SDS011;6785;57.918;12.530;2022-11-15T05:00:25;8.83;;;5.37;;
13425;SDS011;6785;57.918;12.530;2022-11-15T05:02:53;12.37;;;5.47;;
13425;SDS011;6785;57.918;12.530;2022-11-15T05:05:39;6.93;;;5.23;;
13425;SDS011;6785;57.918;12.530;2022-11-15T05:08:07;7.27;;;5.70;;
13425;SDS011;6785;57.918;12.530;2022-11-15T05:10:34;6.53;;;5.13;;
13425;SDS011;6785;57.918;12.530;2022-11-15T05:13:01;9.37;;;5.83;;
13425;SDS011;6785;57.918;12.530;2022-11-15T05:15:28;8.03;;;5.30;;
13425;SDS011;6785;57.918;12.530;2022-11-15T05:17:57;7.33;;;5.10;;
13425;SDS011;6785;57.918;12.530;2022-11-15T05:20:25;6.70;;;5.13;;
13425;SDS011;6785;57.918;12.530;2022-11-15T05:22:52;7.10;;;5.40;;
13425;SDS011;6785;57.918;12.530;2022-11-15T05:25:21;10.93;;;5.47;;
13425;SDS011;6785;57.918;12.530;2022-11-15T05:27:49;6.83;;;4.73;;
13425;SDS011;6785;57.918;12.530;2022-11-15T05:30:16;6.80;;;4.93;;
13425;SDS011;6785;57.918;12.530;2022-11-15T05:32:43;5.13;;;4.23;;
13425;SDS011;6785;57.918;12.530;2022-11-15T05:35:12;7.83;;;4.70;;
13425;SDS011;6785;57.918;12.530;2022-11-15T05:37:45;6.70;;;4.27;;
13425;SDS011;6785;57.918;12.530;2022-11-15T05:40:13;6.83;;;4.97;;
13425;SDS011;6785;57.918;12.530;2022-11-15T05:42:43;6.40;;;4.63;;
13425;SDS011;6785;57.918;12.530;2022-11-15T05:45:12;6.83;;;4.70;;
13425;SDS011;6785;57.918;12.530;2022-11-15T05:47:39;7.13;;;4.57;;
13425;SDS011;6785;57.918;12.530;2022-11-15T05:50:08;7.13;;;4.47;;
13425;SDS011;6785;57.918;12.530;2022-11-15T05:52:40;9.90;;;4.00;;
13425;SDS011;6785;57.918;12.530;2022-11-15T05:55:08;5.03;;;4.10;;
13425;SDS011;6785;57.918;12.530;2022-11-15T05:57:36;10.03;;;4.53;;
13425;SDS011;6785;57.918;12.530;2022-11-15T06:00:05;5.80;;;4.50;;
13425;SDS011;6785;57.918;12.530;2022-11-15T06:02:34;7.63;;;4.23;;
13425;SDS011;6785;57.918;12.530;2022-11-15T06:05:01;5.97;;;4.20;;
13425;SDS011;6785;57.918;12.530;2022-11-15T06:07:29;5.50;;;4.47;;
13425;SDS011;6785;57.918;12.530;2022-11-15T06:09:56;4.90;;;4.00;;
13425;SDS011;6785;57.918;12.530;2022-11-15T06:12:23;7.23;;;4.63;;
13425;SDS011;6785;57.918;12.530;2022-11-15T06:14:50;8.90;;;4.27;;
13425;SDS011;6785;57.918;12.530;2022-11-15T06:17:18;6.90;;;4.57;;
13425;SDS011;6785;57.918;12.530;2022-11-15T06:19:45;7.70;;;5.30;;
13425;SDS011;6785;57.918;12.530;2022-11-15T06:22:12;8.77;;;4.93;;
13425;SDS011;6785;57.918;12.530;2022-11-15T06:24:39;7.90;;;5.13;;
13425;SDS011;6785;57.918;12.530;2022-11-15T06:27:08;5.70;;;4.37;;
13425;SDS011;6785;57.918;12.530;2022-11-15T06:29:37;6.73;;;4.80;;
13425;SDS011;6785;57.918;12.530;2022-11-15T06:32:04;6.83;;;4.97;;
13425;SDS011;6785;57.918;12.530;2022-11-15T06:34:32;6.50;;;5.00;;
13425;SDS011;6785;57.918;12.530;2022-11-15T06:37:00;6.70;;;4.83;;
13425;SDS011;6785;57.918;12.530;2022-11-15T06:39:28;6.67;;;4.87;;
13425;SDS011;6785;57.918;12.530;2022-11-15T06:41:55;7.60;;;4.60;;
13425;SDS011;6785;57.918;12.530;2022-11-15T06:44:22;8.37;;;5.47;;
13425;SDS011;6785;57.918;12.530;2022-11-15T06:46:49;10.43;;;5.50;;
13425;SDS011;6785;57.918;12.530;2022-11-15T06:49:16;7.03;;;4.90;;
13425;SDS011;6785;57.918;12.530;2022-11-15T06:51:45;8.17;;;5.57;;
13425;SDS011;6785;57.918;12.530;2022-11-15T06:54:12;8.80;;;5.23;;
13425;SDS011;6785;57.918;12.530;2022-11-15T06:56:39;7.87;;;5.10;;
13425;SDS011;6785;57.918;12.530;2022-11-15T06:59:06;9.30;;;5.63;;
13425;SDS011;6785;57.918;12.530;2022-11-15T07:01:32;8.27;;;5.37;;
13425;SDS011;6785;57.918;12.530;2022-11-15T07:04:00;8.20;;;5.30;;
13425;SDS011;6785;57.918;12.530;2022-11-15T07:06:27;8.13;;;5.60;;
13425;SDS011;6785;57.918;12.530;2022-11-15T07:08:55;8.97;;;5.40;;
13425;SDS011;6785;57.918;12.530;2022-11-15T07:11:22;8.50;;;5.87;;
13425;SDS011;6785;57.918;12.530;2022-11-15T07:13:49;8.23;;;5.53;;
13425;SDS011;6785;57.918;12.530;2022-11-15T07:16:16;7.40;;;5.07;;
13425;SDS011;6785;57.918;12.530;2022-11-15T07:18:43;12.23;;;5.90;;
13425;SDS011;6785;57.918;12.530;2022-11-15T07:21:10;6.17;;;5.07;;
13425;SDS011;6785;57.918;12.530;2022-11-15T07:23:40;7.03;;;5.13;;
13425;SDS011;6785;57.918;12.530;2022-11-15T07:26:09;7.97;;;5.23;;
13425;SDS011;6785;57.918;12.530;2022-11-15T07:28:36;8.33;;;4.70;;
13425;SDS011;6785;57.918;12.530;2022-11-15T07:31:03;6.90;;;5.30;;
13425;SDS011;6785;57.918;12.530;2022-11-15T07:33:35;6.93;;;5.20;;
13425;SDS011;6785;57.918;12.530;2022-11-15T07:36:03;7.23;;;4.87;;
13425;SDS011;6785;57.918;12.530;2022-11-15T07:38:32;7.87;;;5.10;;
13425;SDS011;6785;57.918;12.530;2022-11-15T07:41:01;7.33;;;4.90;;
13425;SDS011;6785;57.918;12.530;2022-11-15T07:43:31;7.53;;;5.03;;
13425;SDS011;6785;57.918;12.530;2022-11-15T07:45:59;6.87;;;4.63;;
13425;SDS011;6785;57.918;12.530;2022-11-15T07:48:34;8.77;;;5.40;;
13425;SDS011;6785;57.918;12.530;2022-11-15T07:51:02;6.43;;;4.80;;
13425;SDS011;6785;57.918;12.530;2022-11-15T07:53:29;6.83;;;4.63;;
13425;SDS011;6785;57.918;12.530;2022-11-15T07:55:56;10.47;;;4.83;;
13425;SDS011;6785;57.918;12.530;2022-11-15T07:58:23;8.20;;;4.87;;
13425;SDS011;6785;57.918;12.530;2022-11-15T08:00:51;9.93;;;4.80;;
13425;SDS011;6785;57.918;12.530;2022-11-15T08:03:19;8.43;;;4.90;;
13425;SDS011;6785;57.918;12.530;2022-11-15T08:05:49;8.30;;;4.90;;
13425;SDS011;6785;57.918;12.530;2022-11-15T08:08:17;7.67;;;4.73;;
13425;SDS011;6785;57.918;12.530;2022-11-15T08:10:45;8.23;;;4.57;;
13425;SDS011;6785;57.918;12.530;2022-11-15T08:13:12;7.47;;;4.17;;
13425;SDS011;6785;57.918;12.530;2022-11-15T08:15:40;7.03;;;4.10;;
13425;SDS011;6785;57.918;12.530;2022-11-15T08:18:10;6.30;;;4.10;;
13425;SDS011;6785;57.918;12.530;2022-11-15T08:20:43;6.37;;;3.90;;
13425;SDS011;6785;57.918;12.530;2022-11-15T08:23:10;4.53;;;3.83;;
13425;SDS011;6785;57.918;12.530;2022-11-15T08:25:39;4.13;;;3.70;;
13425;SDS011;6785;57.918;12.530;2022-11-15T08:28:07;5.07;;;3.40;;
13425;SDS011;6785;57.918;12.530;2022-11-15T08:30:37;6.50;;;3.60;;
13425;SDS011;6785;57.918;12.530;2022-11-15T08:33:10;6.10;;;4.13;;
13425;SDS011;6785;57.918;12.530;2022-11-15T08:35:39;4.40;;;3.50;;
13425;SDS011;6785;57.918;12.530;2022-11-15T08:38:07;4.23;;;3.80;;
13425;SDS011;6785;57.918;12.530;2022-11-15T08:40:34;5.83;;;3.53;;
13425;SDS011;6785;57.918;12.530;2022-11-15T08:43:02;4.83;;;3.57;;
13425;SDS011;6785;57.918;12.530;2022-11-15T08:45:29;4.00;;;3.60;;
13425;SDS011;6785;57.918;12.530;2022-11-15T08:47:57;6.53;;;3.73;;
13425;SDS011;6785;57.918;12.530;2022-11-15T08:50:28;5.80;;;3.60;;
13425;SDS011;6785;57.918;12.530;2022-11-15T08:52:55;6.60;;;3.63;;
13425;SDS011;6785;57.918;12.530;2022-11-15T08:55:22;3.83;;;3.23;;
13425;SDS011;6785;57.918;12.530;2022-11-15T08:57:49;6.07;;;3.60;;
13425;SDS011;6785;57.918;12.530;2022-11-15T09:00:17;5.60;;;3.60;;
13425;SDS011;6785;57.918;12.530;2022-11-15T09:02:45;5.97;;;3.13;;
13425;SDS011;6785;57.918;12.530;2022-11-15T09:05:12;6.03;;;3.50;;
13425;SDS011;6785;57.918;12.530;2022-11-15T09:07:41;4.90;;;3.70;;
13425;SDS011;6785;57.918;12.530;2022-11-15T09:10:08;4.77;;;3.03;;
13425;SDS011;6785;57.918;12.530;2022-11-15T09:12:36;4.83;;;3.57;;
13425;SDS011;6785;57.918;12.530;2022-11-15T09:15:03;3.83;;;3.00;;
13425;SDS011;6785;57.918;12.530;2022-11-15T09:17:32;3.17;;;2.67;;
13425;SDS011;6785;57.918;12.530;2022-11-15T09:19:59;4.73;;;3.13;;
13425;SDS011;6785;57.918;12.530;2022-11-15T09:22:26;5.50;;;2.90;;
13425;SDS011;6785;57.918;12.530;2022-11-15T09:24:54;4.97;;;2.97;;
13425;SDS011;6785;57.918;12.530;2022-11-15T09:27:21;6.60;;;3.27;;
13425;SDS011;6785;57.918;12.530;2022-11-15T09:29:53;4.10;;;2.83;;
13425;SDS011;6785;57.918;12.530;2022-11-15T09:32:20;4.90;;;2.90;;
13425;SDS011;6785;57.918;12.530;2022-11-15T09:34:47;6.30;;;4.10;;
13425;SDS011;6785;57.918;12.530;2022-11-15T09:37:15;8.87;;;5.70;;
13425;SDS011;6785;57.918;12.530;2022-11-15T09:39:42;4.40;;;3.27;;
13425;SDS011;6785;57.918;12.530;2022-11-15T09:42:16;5.27;;;3.20;;
13425;SDS011;6785;57.918;12.530;2022-11-15T09:45:15;4.77;;;2.83;;
13425;SDS011;6785;57.918;12.530;2022-11-15T09:48:05;3.10;;;2.50;;
13425;SDS011;6785;57.918;12.530;2022-11-15T09:50:58;3.10;;;2.60;;
13425;SDS011;6785;57.918;12.530;2022-11-15T09:53:26;3.77;;;3.20;;
13425;SDS011;6785;57.918;12.530;2022-11-15T09:56:05;2.93;;;2.63;;
13425;SDS011;6785;57.918;12.530;2022-11-15T09:58:44;3.90;;;3.03;;
13425;SDS011;6785;57.918;12.530;2022-11-15T10:01:33;3.83;;;2.90;;
13425;SDS011;6785;57.918;12.530;2022-11-15T10:04:10;4.97;;;2.27;;
13425;SDS011;6785;57.918;12.530;2022-11-15T10:06:38;3.13;;;2.70;;
13425;SDS011;6785;57.918;12.530;2022-11-15T10:09:28;3.00;;;2.40;;
13425;SDS011;6785;57.918;12.530;2022-11-15T10:12:06;3.03;;;2.30;;
13425;SDS011;6785;57.918;12.530;2022-11-15T10:14:36;5.23;;;2.37;;
13425;SDS011;6785;57.918;12.530;2022-11-15T10:20:08;2.73;;;2.50;;
13425;SDS011;6785;57.918;12.530;2022-11-15T10:22:44;3.17;;;2.30;;
13425;SDS011;6785;57.918;12.530;2022-11-15T10:25:16;4.03;;;2.27;;
13425;SDS011;6785;57.918;12.530;2022-11-15T10:27:56;2.87;;;2.13;;
13425;SDS011;6785;57.918;12.530;2022-11-15T10:30:32;1.90;;;1.77;;
13425;SDS011;6785;57.918;12.530;2022-11-15T10:33:10;2.27;;;1.90;;
13425;SDS011;6785;57.918;12.530;2022-11-15T10:35:48;2.00;;;1.60;;
13425;SDS011;6785;57.918;12.530;2022-11-15T10:38:56;3.73;;;2.20;;
13425;SDS011;6785;57.918;12.530;2022-11-15T10:41:32;3.83;;;1.97;;
13425;SDS011;6785;57.918;12.530;2022-11-15T10:44:08;2.53;;;1.80;;
13425;SDS011;6785;57.918;12.530;2022-11-15T10:50:01;3.00;;;1.70;;
13425;SDS011;6785;57.918;12.530;2022-11-15T10:52:33;2.63;;;2.23;;
13425;SDS011;6785;57.918;12.530;2022-11-15T10:55:05;2.03;;;1.80;;
13425;SDS011;6785;57.918;12.530;2022-11-15T10:57:50;6.70;;;2.60;;
13425;SDS011;6785;57.918;12.530;2022-11-15T11:00:27;4.10;;;2.30;;
13425;SDS011;6785;57.918;12.530;2022-11-15T11:03:01;3.67;;;1.80;;
13425;SDS011;6785;57.918;12.530;2022-11-15T11:05:32;3.30;;;2.10;;
13425;SDS011;6785;57.918;12.530;2022-11-15T11:08:03;2.17;;;1.83;;
13425;SDS011;6785;57.918;12.530;2022-11-15T11:10:53;2.37;;;1.40;;
13425;SDS011;6785;57.918;12.530;2022-11-15T11:13:22;2.00;;;1.47;;
13425;SDS011;6785;57.918;12.530;2022-11-15T11:15:53;2.33;;;1.70;;
13425;SDS011;6785;57.918;12.530;2022-11-15T11:18:33;1.87;;;1.60;;
13425;SDS011;6785;57.918;12.530;2022-11-15T11:21:09;5.60;;;2.27;;
13425;SDS011;6785;57.918;12.530;2022-11-15T11:23:45;2.23;;;1.60;;
13425;SDS011;6785;57.918;12.530;2022-11-15T11:26:29;4.23;;;1.60;;
13425;SDS011;6785;57.918;12.530;2022-11-15T11:29:14;1.77;;;1.37;;
13425;SDS011;6785;57.918;12.530;2022-11-15T11:32:01;6.07;;;1.57;;
13425;SDS011;6785;57.918;12.530;2022-11-15T11:34:50;3.10;;;1.50;;
13425;SDS011;6785;57.918;12.530;2022-11-15T11:37:30;3.00;;;1.70;;
13425;SDS011;6785;57.918;12.530;2022-11-15T11:40:16;3.53;;;1.70;;
13425;SDS011;6785;57.918;12.530;2022-11-15T11:43:01;3.40;;;2.10;;
13425;SDS011;6785;57.918;12.530;2022-11-15T11:45:44;7.63;;;2.30;;
13425;SDS011;6785;57.918;12.530;2022-11-15T11:48:37;1.90;;;1.70;;
13425;SDS011;6785;57.918;12.530;2022-11-15T11:51:11;1.90;;;1.50;;
13425;SDS011;6785;57.918;12.530;2022-11-15T11:53:46;1.60;;;1.50;;
13425;SDS011;6785;57.918;12.530;2022-11-15T11:56:22;1.93;;;1.60;;
13425;SDS011;6785;57.918;12.530;2022-11-15T11:58:56;4.10;;;1.80;;
13425;SDS011;6785;57.918;12.530;2022-11-15T12:01:34;2.40;;;1.63;;
13425;SDS011;6785;57.918;12.530;2022-11-15T12:04:09;2.23;;;1.83;;
13425;SDS011;6785;57.918;12.530;2022-11-15T12:06:46;4.37;;;2.10;;
13425;SDS011;6785;57.918;12.530;2022-11-15T12:09:20;3.77;;;2.00;;
13425;SDS011;6785;57.918;12.530;2022-11-15T12:11:59;2.33;;;1.80;;
13425;SDS011;6785;57.918;12.530;2022-11-15T12:14:38;2.10;;;1.90;;
13425;SDS011;6785;57.918;12.530;2022-11-15T12:17:11;3.63;;;1.90;;
13425;SDS011;6785;57.918;12.530;2022-11-15T12:19:40;4.83;;;2.57;;
13425;SDS011;6785;57.918;12.530;2022-11-15T12:22:10;5.77;;;2.00;;
13425;SDS011;6785;57.918;12.530;2022-11-15T12:24:46;2.83;;;1.80;;
13425;SDS011;6785;57.918;12.530;2022-11-15T12:27:24;3.13;;;1.90;;
13425;SDS011;6785;57.918;12.530;2022-11-15T12:30:04;3.53;;;1.67;;
13425;SDS011;6785;57.918;12.530;2022-11-15T12:32:39;1.83;;;1.53;;
13425;SDS011;6785;57.918;12.530;2022-11-15T12:35:21;3.77;;;2.50;;
13425;SDS011;6785;57.918;12.530;2022-11-15T12:37:53;2.80;;;1.80;;
13425;SDS011;6785;57.918;12.530;2022-11-15T12:40:25;3.70;;;2.30;;
13425;SDS011;6785;57.918;12.530;2022-11-15T12:42:57;5.90;;;2.90;;
13425;SDS011;6785;57.918;12.530;2022-11-15T12:45:57;5.43;;;3.60;;
13425;SDS011;6785;57.918;12.530;2022-11-15T12:57:38;4.87;;;3.00;;
13425;SDS011;6785;57.918;12.530;2022-11-15T13:03:26;5.73;;;3.27;;
13425;SDS011;6785;57.918;12.530;2022-11-15T13:05:59;5.57;;;3.20;;
13425;SDS011;6785;57.918;12.530;2022-11-15T13:12:56;4.13;;;2.73;;
13425;SDS011;6785;57.918;12.530;2022-11-15T13:15:38;5.67;;;3.20;;
13425;SDS011;6785;57.918;12.530;2022-11-15T13:18:26;3.33;;;2.63;;
13425;SDS011;6785;57.918;12.530;2022-11-15T13:21:18;3.63;;;2.70;;
13425;SDS011;6785;57.918;12.530;2022-11-15T13:24:10;4.90;;;2.53;;
13425;SDS011;6785;57.918;12.530;2022-11-15T13:26:40;3.40;;;2.37;;
13425;SDS011;6785;57.918;12.530;2022-11-15T13:29:18;3.67;;;2.40;;
13425;SDS011;6785;57.918;12.530;2022-11-15T13:31:46;4.90;;;2.20;;
13425;SDS011;6785;57.918;12.530;2022-11-15T13:34:22;6.87;;;2.30;;
13425;SDS011;6785;57.918;12.530;2022-11-15T13:36:53;3.43;;;2.03;;
13425;SDS011;6785;57.918;12.530;2022-11-15T13:39:25;3.97;;;1.87;;
13425;SDS011;6785;57.918;12.530;2022-11-15T13:41:56;2.87;;;1.70;;
13425;SDS011;6785;57.918;12.530;2022-11-15T13:44:26;2.03;;;1.70;;
13425;SDS011;6785;57.918;12.530;2022-11-15T13:47:01;5.00;;;1.80;;
13425;SDS011;6785;57.918;12.530;2022-11-15T13:49:31;2.77;;;1.30;;
13425;SDS011;6785;57.918;12.530;2022-11-15T13:52:00;2.20;;;1.63;;
13425;SDS011;6785;57.918;12.530;2022-11-15T13:54:32;2.47;;;1.50;;
13425;SDS011;6785;57.918;12.530;2022-11-15T13:57:04;1.73;;;1.50;;
13425;SDS011;6785;57.918;12.530;2022-11-15T13:59:45;1.67;;;1.20;;
13425;SDS011;6785;57.918;12.530;2022-11-15T14:02:16;1.13;;;1.03;;
13425;SDS011;6785;57.918;12.530;2022-11-15T14:04:46;1.13;;;1.03;;
13425;SDS011;6785;57.918;12.530;2022-11-15T14:07:18;1.13;;;1.03;;
13425;SDS011;6785;57.918;12.530;2022-11-15T14:09:47;2.10;;;1.03;;
13425;SDS011;6785;57.918;12.530;2022-11-15T14:12:28;2.30;;;1.30;;
13425;SDS011;6785;57.918;12.530;2022-11-15T14:14:59;3.50;;;1.30;;
13425;SDS011;6785;57.918;12.530;2022-11-15T14:17:43;2.57;;;1.07;;
13425;SDS011;6785;57.918;12.530;2022-11-15T14:20:25;1.10;;;1.00;;
13425;SDS011;6785;57.918;12.530;2022-11-15T14:22:57;1.47;;;1.10;;
13425;SDS011;6785;57.918;12.530;2022-11-15T14:25:27;1.63;;;1.30;;
13425;SDS011;6785;57.918;12.530;2022-11-15T14:28:08;0.73;;;0.73;;
13425;SDS011;6785;57.918;12.530;2022-11-15T14:30:43;1.17;;;1.07;;
13425;SDS011;6785;57.918;12.530;2022-11-15T14:33:19;2.93;;;1.60;;
13425;SDS011;6785;57.918;12.530;2022-11-15T14:35:50;8.07;;;5.83;;
13425;SDS011;6785;57.918;12.530;2022-11-15T14:38:18;2.07;;;1.00;;
13425;SDS011;6785;57.918;12.530;2022-11-15T14:40:46;1.83;;;1.20;;
13425;SDS011;6785;57.918;12.530;2022-11-15T14:43:13;0.70;;;0.70;;
13425;SDS011;6785;57.918;12.530;2022-11-15T14:45:41;0.90;;;0.90;;
13425;SDS011;6785;57.918;12.530;2022-11-15T14:48:09;1.00;;;0.93;;
13425;SDS011;6785;57.918;12.530;2022-11-15T14:50:36;4.10;;;1.23;;
13425;SDS011;6785;57.918;12.530;2022-11-15T14:53:04;0.77;;;0.77;;
13425;SDS011;6785;57.918;12.530;2022-11-15T14:55:33;1.90;;;0.80;;
13425;SDS011;6785;57.918;12.530;2022-11-15T14:58:01;0.50;;;0.50;;
13425;SDS011;6785;57.918;12.530;2022-11-15T15:00:29;1.37;;;0.70;;
13425;SDS011;6785;57.918;12.530;2022-11-15T15:02:58;0.97;;;0.50;;
13425;SDS011;6785;57.918;12.530;2022-11-15T15:05:29;2.37;;;0.70;;
13425;SDS011;6785;57.918;12.530;2022-11-15T15:07:59;0.40;;;0.40;;
13425;SDS011;6785;57.918;12.530;2022-11-15T15:10:27;1.20;;;1.10;;
13425;SDS011;6785;57.918;12.530;2022-11-15T15:12:58;0.80;;;0.80;;
13425;SDS011;6785;57.918;12.530;2022-11-15T15:15:27;0.70;;;0.70;;
13425;SDS011;6785;57.918;12.530;2022-11-15T15:18:00;0.50;;;0.50;;
13425;SDS011;6785;57.918;12.530;2022-11-15T15:20:28;0.87;;;0.60;;
13425;SDS011;6785;57.918;12.530;2022-11-15T15:22:56;1.70;;;0.50;;
13425;SDS011;6785;57.918;12.530;2022-11-15T15:25:25;0.73;;;0.50;;
13425;SDS011;6785;57.918;12.530;2022-11-15T15:27:58;0.50;;;0.33;;
13425;SDS011;6785;57.918;12.530;2022-11-15T15:30:26;0.60;;;0.60;;
13425;SDS011;6785;57.918;12.530;2022-11-15T15:32:54;0.40;;;0.40;;
13425;SDS011;6785;57.918;12.530;2022-11-15T15:35:23;0.53;;;0.53;;
13425;SDS011;6785;57.918;12.530;2022-11-15T15:37:55;0.60;;;0.57;;
13425;SDS011;6785;57.918;12.530;2022-11-15T15:40:23;0.70;;;0.70;;
13425;SDS011;6785;57.918;12.530;2022-11-15T15:42:51;1.33;;;0.77;;